Time;durP1;ratioP1;P1;durP2;ratioP2;P2;SDS_P1;SDS_P2;PMS_P1;PMS_P2;Temp;Humidity;BMP_temperature;BMP_pressure;BME280_temperature;BME280_humidity;BME280_pressure;Samples;Min_cycle;Max_cycle;Signal;HPM_P1;HPM_P2
2022/07/21 00:00:28;;;;;;;6.75;5.15;;;;;;;24.94;42.08;93547.59;4991323;28;20038;-90
2022/07/21 00:02:54;;;;;;;5.97;4.80;;;;;;;24.93;42.12;93543.34;5011536;28;20097;-90
2022/07/21 00:05:20;;;;;;;7.32;5.40;;;;;;;24.92;42.14;93541.88;5008803;28;20415;-91
2022/07/21 00:07:45;;;;;;;6.65;4.60;;;;;;;24.92;42.07;93542.63;5009843;28;20547;-90
2022/07/21 00:10:11;;;;;;;7.07;5.40;;;;;;;24.92;42.17;93545.38;5011543;28;20489;-89
2022/07/21 00:12:37;;;;;;;6.07;4.68;;;;;;;24.95;42.06;93551.88;5027445;28;20057;-90
2022/07/21 00:15:03;;;;;;;7.47;5.40;;;;;;;24.92;42.25;93544.63;5027491;28;20107;-92
2022/07/21 00:17:29;;;;;;;6.60;4.88;;;;;;;24.91;42.28;93549.44;5025441;28;20143;-91
2022/07/21 00:19:54;;;;;;;6.53;4.82;;;;;;;24.90;42.28;93555.50;5037072;28;20510;-91
2022/07/21 00:22:19;;;;;;;5.88;4.55;;;;;;;24.91;42.33;93557.00;5054902;28;20522;-91
2022/07/21 00:24:45;;;;;;;7.80;5.03;;;;;;;24.91;42.22;93557.00;5031143;28;20103;-90
2022/07/21 00:27:10;;;;;;;5.13;4.63;;;;;;;24.88;42.25;93553.31;5014893;28;20503;-90
2022/07/21 00:29:36;;;;;;;5.70;5.07;;;;;;;24.90;42.28;93553.47;5032789;28;20589;-92
2022/07/21 00:32:03;;;;;;;6.22;4.53;;;;;;;24.90;42.21;93559.00;5051195;28;20511;-90
2022/07/21 00:34:29;;;;;;;6.97;4.90;;;;;;;24.90;42.16;93558.28;5036204;28;20036;-90
2022/07/21 00:36:54;;;;;;;6.60;4.30;;;;;;;24.90;42.17;93556.25;5035156;28;20557;-89
2022/07/21 00:39:19;;;;;;;5.40;4.28;;;;;;;24.88;42.29;93558.84;5018997;28;20458;-90
2022/07/21 00:41:45;;;;;;;5.10;4.18;;;;;;;24.88;42.10;93558.84;5051977;28;20093;-90
2022/07/21 00:44:24;;;;;;;5.88;4.72;;;;;;;24.86;42.19;93553.13;5036445;28;20495;-91
2022/07/21 00:46:49;;;;;;;6.80;4.68;;;;;;;24.89;42.15;93560.34;5020433;28;20444;-90
2022/07/21 00:49:15;;;;;;;6.68;4.78;;;;;;;24.87;42.29;93564.94;5034829;28;20035;-90
2022/07/21 00:51:40;;;;;;;5.97;4.35;;;;;;;24.89;42.36;93562.34;5035185;28;20407;-90
2022/07/21 00:54:05;;;;;;;5.55;4.28;;;;;;;24.87;42.28;93564.94;5036619;28;20372;-90
2022/07/21 00:56:31;;;;;;;5.65;4.43;;;;;;;24.89;42.26;93565.13;5040626;28;20399;-90
2022/07/21 00:58:56;;;;;;;6.13;4.88;;;;;;;24.86;42.40;93566.22;5052071;28;20427;-91
2022/07/21 01:01:22;;;;;;;6.63;4.40;;;;;;;24.86;42.30;93566.22;5018131;28;20499;-90
2022/07/21 01:03:47;;;;;;;6.00;4.28;;;;;;;24.87;42.35;93564.94;5018762;28;20547;-90
2022/07/21 01:06:13;;;;;;;6.03;4.35;;;;;;;24.86;42.14;93561.44;5012714;28;20451;-90
2022/07/21 01:08:38;;;;;;;6.35;4.45;;;;;;;24.86;42.41;93580.78;5018724;28;20041;-90
2022/07/21 01:11:04;;;;;;;5.65;4.40;;;;;;;24.87;42.18;93585.03;5035862;28;20315;-90
2022/07/21 01:13:30;;;;;;;5.43;4.10;;;;;;;24.86;42.32;93588.34;5035099;28;20036;-90
2022/07/21 01:15:55;;;;;;;5.57;4.47;;;;;;;24.83;42.44;93590.19;5027053;28;20046;-90
2022/07/21 01:18:20;;;;;;;5.00;4.43;;;;;;;24.84;42.29;93597.19;4995631;28;20382;-90
2022/07/21 01:20:52;;;;;;;6.65;4.07;;;;;;;24.84;42.47;93610.28;5015057;28;20459;-90
2022/07/21 01:23:17;;;;;;;5.57;4.35;;;;;;;24.85;42.35;93598.66;5014579;28;20033;-90
2022/07/21 01:25:49;;;;;;;5.30;4.45;;;;;;;24.83;42.43;93592.19;5014482;28;20420;-92
2022/07/21 01:28:15;;;;;;;6.00;4.45;;;;;;;24.85;42.36;93606.22;4997864;28;20574;-90
2022/07/21 01:30:40;;;;;;;5.05;4.18;;;;;;;24.84;42.39;93615.81;5012597;28;20046;-90
2022/07/21 01:33:06;;;;;;;5.20;4.53;;;;;;;24.83;42.24;93614.31;5011051;28;20049;-90
2022/07/21 01:35:31;;;;;;;4.90;4.10;;;;;;;24.83;42.47;93612.28;5028369;28;20455;-90
2022/07/21 01:37:56;;;;;;;6.40;5.15;;;;;;;24.84;42.44;93627.59;5033873;28;20354;-89
2022/07/21 01:43:06;;;;;;;5.53;4.05;;;;;;;24.84;42.54;93615.81;5038854;28;20067;-90
2022/07/21 01:45:32;;;;;;;5.38;4.18;;;;;;;24.83;42.33;93609.53;5050768;28;20041;-90
2022/07/21 01:47:57;;;;;;;5.90;4.20;;;;;;;24.81;42.61;93614.88;5012170;28;20042;-92
2022/07/21 01:50:26;;;;;;;6.57;4.75;;;;;;;24.83;42.50;93617.09;5010784;28;20458;-91
2022/07/21 01:52:53;;;;;;;5.85;4.32;;;;;;;24.83;42.45;93617.81;5011337;28;20084;-90
2022/07/21 01:55:19;;;;;;;5.18;4.22;;;;;;;24.81;42.49;93623.16;5026920;28;20041;-90
2022/07/21 01:57:44;;;;;;;5.40;3.90;;;;;;;24.81;42.46;93623.16;5037705;28;20039;-90
2022/07/21 02:00:10;;;;;;;5.43;4.63;;;;;;;24.80;42.46;93626.47;5033585;28;20086;-91
2022/07/21 02:02:36;;;;;;;5.93;3.80;;;;;;;24.81;42.66;93623.16;5018050;28;20109;-91
2022/07/21 02:05:01;;;;;;;6.22;4.07;;;;;;;24.80;42.40;93607.84;5033987;28;20036;-90
2022/07/21 02:07:26;;;;;;;5.30;4.10;;;;;;;24.78;42.50;93609.69;5037173;28;20582;-89
2022/07/21 02:09:52;;;;;;;5.13;4.20;;;;;;;24.79;42.83;93611.91;5047571;28;20372;-89
2022/07/21 02:12:17;;;;;;;4.93;3.55;;;;;;;24.81;42.55;93614.13;5046682;28;20048;-90
2022/07/21 02:14:43;;;;;;;4.45;3.70;;;;;;;24.78;42.50;93607.66;5031227;28;20045;-89
2022/07/21 02:17:08;;;;;;;5.50;3.47;;;;;;;24.78;42.61;93607.66;5036781;28;20055;-89
2022/07/21 02:19:34;;;;;;;4.35;3.67;;;;;;;24.78;42.51;93610.44;5033779;28;20028;-90
2022/07/21 02:21:59;;;;;;;4.20;3.80;;;;;;;24.77;42.47;93606.19;5018222;28;20032;-90
2022/07/21 02:24:25;;;;;;;5.80;3.83;;;;;;;24.76;42.55;93593.66;5033313;28;20450;-90
2022/07/21 02:26:50;;;;;;;5.00;3.97;;;;;;;24.77;42.48;93600.66;5018025;28;20495;-91
2022/07/21 02:29:15;;;;;;;4.40;3.65;;;;;;;24.77;42.62;93602.69;5032735;28;20442;-90
2022/07/21 02:31:41;;;;;;;6.07;3.78;;;;;;;24.77;42.69;93600.66;5044236;28;20028;-91
2022/07/21 02:34:06;;;;;;;5.57;4.13;;;;;;;24.77;42.52;93597.88;5053240;28;20036;-90
2022/07/21 02:36:32;;;;;;;4.25;3.80;;;;;;;24.77;42.57;93589.59;5054555;28;20040;-92
2022/07/21 02:38:58;;;;;;;6.38;4.55;;;;;;;24.76;42.55;93595.66;5036364;28;20036;-90
2022/07/21 02:41:23;;;;;;;4.97;3.72;;;;;;;24.78;42.57;93595.88;5033586;28;20040;-89
2022/07/21 02:43:49;;;;;;;4.78;3.92;;;;;;;24.74;42.59;93598.97;5030517;28;20483;-90
2022/07/21 02:46:14;;;;;;;4.60;4.05;;;;;;;24.75;43.13;93594.94;5018490;28;20230;-92
2022/07/21 02:48:40;;;;;;;5.95;4.00;;;;;;;24.76;42.54;93595.66;5037432;28;20496;-90
2022/07/21 02:51:05;;;;;;;4.82;3.97;;;;;;;24.75;42.48;93594.19;5054842;28;20032;-90
2022/07/21 02:53:30;;;;;;;4.53;3.70;;;;;;;24.75;42.55;93599.72;5034065;28;20345;-92
2022/07/21 02:55:56;;;;;;;5.30;4.20;;;;;;;24.75;42.78;93599.72;5039193;28;20051;-90
2022/07/21 02:58:22;;;;;;;4.20;3.30;;;;;;;24.74;42.60;93598.25;5056755;28;20040;-90
2022/07/21 03:00:54;;;;;;;5.22;3.70;;;;;;;24.73;42.52;93608.56;5074441;28;20043;-90
2022/07/21 03:03:20;;;;;;;4.07;3.33;;;;;;;24.73;42.71;93622.38;5040700;28;20407;-91
2022/07/21 03:05:46;;;;;;;4.75;3.70;;;;;;;24.74;42.60;93618.34;5040577;28;20038;-90
2022/07/21 03:08:12;;;;;;;4.25;3.17;;;;;;;24.75;42.66;93619.06;5039665;28;20040;-90
2022/07/21 03:10:37;;;;;;;4.88;4.28;;;;;;;24.74;42.89;93626.63;5041092;28;20568;-89
2022/07/21 03:13:03;;;;;;;4.85;3.75;;;;;;;24.74;42.59;93623.13;5057575;28;20035;-90
2022/07/21 03:15:29;;;;;;;4.18;3.45;;;;;;;24.74;42.78;93631.41;5056832;28;20097;-90
2022/07/21 03:17:54;;;;;;;5.07;3.63;;;;;;;24.73;42.58;93630.69;5052454;28;20372;-90
2022/07/21 03:20:23;;;;;;;4.22;3.33;;;;;;;24.73;42.78;93627.19;5036129;28;20554;-90
2022/07/21 03:22:48;;;;;;;3.65;3.15;;;;;;;24.73;42.67;93638.25;5034364;28;20574;-89
2022/07/21 03:25:14;;;;;;;3.55;3.25;;;;;;;24.72;42.80;93645.78;5034053;28;20029;-90
2022/07/21 03:27:39;;;;;;;4.20;3.80;;;;;;;24.75;42.70;93643.97;5029477;28;20106;-90
2022/07/21 03:30:08;;;;;;;4.35;3.05;;;;;;;24.73;42.55;93638.97;5053377;28;20052;-90
2022/07/21 03:32:34;;;;;;;4.20;3.53;;;;;;;24.69;42.82;93638.59;5033121;28;20068;-90
2022/07/21 03:34:59;;;;;;;3.63;3.03;;;;;;;24.69;42.64;93635.81;5000622;28;20044;-89
2022/07/21 03:37:24;;;;;;;4.45;3.58;;;;;;;24.71;42.97;93640.81;5016937;28;20136;-90
2022/07/21 03:39:50;;;;;;;4.35;3.60;;;;;;;24.74;42.95;93645.25;5032701;28;20395;-90
2022/07/21 03:42:15;;;;;;;13.07;5.13;;;;;;;24.64;42.44;93639.50;5038082;28;20391;-92
2022/07/21 03:44:41;;;;;;;11.13;4.75;;;;;;;24.59;42.01;93652.19;5022652;28;20458;-91
2022/07/21 03:47:14;;;;;;;22.00;14.93;;;;;;;24.51;41.86;93651.41;5025629;28;20036;-90
2022/07/21 03:49:40;;;;;;;16.10;9.43;;;;;;;24.46;41.55;93659.88;5035315;28;20097;-91
2022/07/21 03:52:05;;;;;;;9.32;5.63;;;;;;;24.42;41.61;93663.00;5023638;28;20040;-93
2022/07/21 03:54:31;;;;;;;5.82;4.72;;;;;;;24.41;41.85;93667.03;5040418;28;20052;-92
2022/07/21 03:56:56;;;;;;;7.07;5.03;;;;;;;24.35;41.92;93660.19;5072039;28;20051;-92
2022/07/21 03:59:21;;;;;;;20.70;5.82;;;;;;;24.37;41.61;93668.66;5036889;28;20534;-92
2022/07/21 04:01:47;;;;;;;13.50;5.40;;;;;;;24.33;41.68;93674.53;5038803;28;20491;-91
2022/07/21 04:04:12;;;;;;;13.88;6.10;;;;;;;24.30;41.65;93672.84;5019804;28;20582;-92
2022/07/21 04:06:38;;;;;;;9.00;5.18;;;;;;;24.27;41.60;93663.63;5037679;28;20045;-92
2022/07/21 04:09:03;;;;;;;15.70;5.53;;;;;;;24.20;41.96;93678.13;5051904;28;20146;-92
2022/07/21 04:11:30;;;;;;;16.83;8.75;;;;;;;24.18;42.02;93680.69;5022725;28;20041;-92
2022/07/21 04:13:56;;;;;;;16.58;8.15;;;;;;;24.03;42.40;93682.59;5037767;28;20041;-92
2022/07/21 04:16:22;;;;;;;9.98;6.40;;;;;;;23.93;42.31;93690.63;5033933;28;20025;-92
2022/07/21 04:18:49;;;;;;;12.25;5.75;;;;;;;23.83;42.61;93678.56;5045179;28;20041;-91
2022/07/21 04:21:15;;;;;;;9.65;4.85;;;;;;;23.84;42.80;93688.34;5052674;28;20043;-90
2022/07/21 04:23:40;;;;;;;8.82;4.97;;;;;;;23.66;43.20;93692.03;5020647;28;20049;-91
2022/07/21 04:26:07;;;;;;;14.77;6.30;;;;;;;23.62;43.19;93692.38;5026879;28;20032;-92
2022/07/21 04:28:32;;;;;;;9.48;5.07;;;;;;;23.71;42.86;93697.44;5019324;28;20033;-92
2022/07/21 04:30:58;;;;;;;9.18;5.18;;;;;;;23.66;43.20;93695.56;5016453;28;20032;-92
2022/07/21 04:33:23;;;;;;;46.83;23.08;;;;;;;23.74;43.75;93696.38;5038305;28;20044;-91
2022/07/21 04:35:48;;;;;;;39.13;20.33;;;;;;;23.78;44.45;93702.28;5019305;28;20037;-93
2022/07/21 04:38:19;;;;;;;30.60;17.48;;;;;;;23.80;44.92;93699.00;5045114;28;20101;-95
2022/07/21 04:40:44;;;;;;;12.90;6.72;;;;;;;23.59;45.58;93704.53;5015535;28;20040;-93
2022/07/21 04:43:12;;;;;;;61.40;53.13;;;;;;;23.53;45.47;93706.66;5036180;28;20043;-91
2022/07/21 04:45:40;;;;;;;15.02;7.43;;;;;;;23.54;45.70;93702.63;5038350;28;20040;-93
2022/07/21 04:48:06;;;;;;;40.63;22.27;;;;;;;23.47;46.24;93701.25;5013960;28;20038;-90
2022/07/21 04:50:32;;;;;;;32.13;16.27;;;;;;;23.54;47.04;93706.13;5013876;28;20415;-93
2022/07/21 04:52:58;;;;;;;116.07;52.13;;;;;;;23.58;46.05;93698.25;5040650;28;20064;-90
2022/07/21 04:55:24;;;;;;;102.20;30.55;;;;;;;23.60;45.89;93710.78;5027120;28;20037;-92
2022/07/21 04:57:50;;;;;;;116.70;41.75;;;;;;;23.68;46.11;93714.34;5007610;28;20116;-91
2022/07/21 05:00:19;;;;;;;71.15;32.25;;;;;;;23.72;45.25;93714.75;5028851;28;20110;-91
2022/07/21 05:02:44;;;;;;;81.07;28.92;;;;;;;23.83;45.29;93712.44;5016857;28;20041;-92
2022/07/21 05:05:10;;;;;;;159.90;47.92;;;;;;;23.88;45.20;93719.09;5018297;28;20025;-89
2022/07/21 05:07:36;;;;;;;123.70;32.72;;;;;;;23.91;45.21;93716.00;5012551;28;20048;-89
2022/07/21 05:10:06;;;;;;;138.70;37.45;;;;;;;23.92;45.31;93714.72;5022013;28;20045;-91
2022/07/21 05:12:31;;;;;;;94.57;31.02;;;;;;;23.99;45.05;93720.88;5041953;28;20081;-89
2022/07/21 05:14:57;;;;;;;93.30;28.52;;;;;;;24.00;45.25;93719.59;5047532;28;20480;-92
2022/07/21 05:17:22;;;;;;;94.80;31.85;;;;;;;24.06;45.04;93723.66;5031718;28;20036;-93
2022/07/21 05:19:50;;;;;;;116.60;35.22;;;;;;;24.10;45.04;93726.09;5015262;28;20067;-89
2022/07/21 05:22:17;;;;;;;107.88;32.88;;;;;;;24.18;44.63;93724.13;5031090;28;20515;-89
2022/07/21 05:24:43;;;;;;;102.35;35.58;;;;;;;24.18;44.81;93727.66;5048279;28;20166;-88
2022/07/21 05:27:08;;;;;;;99.50;34.28;;;;;;;24.21;44.43;93726.56;5047032;28;20041;-89
2022/07/21 05:29:34;;;;;;;119.53;37.88;;;;;;;24.24;44.65;93730.31;5059995;28;20052;-89
2022/07/21 05:31:59;;;;;;;96.75;32.15;;;;;;;24.27;44.67;93723.66;4996785;28;20070;-88
2022/07/21 05:34:25;;;;;;;157.40;39.53;;;;;;;24.34;44.60;93725.75;5008496;28;20037;-89
2022/07/21 05:36:50;;;;;;;96.53;30.63;;;;;;;24.35;44.54;93738.28;5007470;28;20113;-88
2022/07/21 05:39:17;;;;;;;100.88;30.63;;;;;;;24.38;44.70;93739.97;5025382;28;20558;-91
2022/07/21 05:41:42;;;;;;;93.28;27.13;;;;;;;24.39;44.62;93740.72;5013707;28;20045;-91
2022/07/21 05:44:08;;;;;;;99.10;30.75;;;;;;;24.43;44.62;93735.59;5033101;28;20048;-91
2022/07/21 05:46:33;;;;;;;77.53;32.60;;;;;;;24.49;44.37;93741.69;5035974;28;20045;-90
2022/07/21 05:48:59;;;;;;;94.45;38.13;;;;;;;24.53;44.19;93744.84;5023071;28;20048;-91
2022/07/21 05:51:24;;;;;;;94.75;37.65;;;;;;;24.53;44.53;93745.59;5031631;28;20536;-91
2022/07/21 05:53:51;;;;;;;84.15;34.67;;;;;;;24.56;44.72;93752.06;5025138;28;20049;-90
2022/07/21 05:56:16;;;;;;;85.22;41.95;;;;;;;24.56;44.25;93760.34;5001460;28;20054;-89
2022/07/21 05:58:42;;;;;;;90.55;39.10;;;;;;;24.59;44.59;93748.19;4985042;28;20049;-91
2022/07/21 06:01:12;;;;;;;110.32;57.33;;;;;;;24.62;44.22;93766.47;5019506;28;20041;-92
2022/07/21 06:03:49;;;;;;;185.52;124.30;;;;;;;24.71;44.30;93765.97;4991866;28;20053;-91
2022/07/21 06:06:16;;;;;;;181.95;118.55;;;;;;;24.80;44.02;93770.25;4957649;28;20081;-90
2022/07/21 06:08:46;;;;;;;195.48;121.70;;;;;;;24.83;43.95;93763.66;4983057;28;20049;-94
2022/07/21 06:11:14;;;;;;;193.60;120.55;;;;;;;24.89;43.97;93758.72;4986395;28;20273;-93
2022/07/21 06:13:40;;;;;;;215.25;133.35;;;;;;;24.93;44.23;93757.03;4984683;28;20057;-93
2022/07/21 06:16:06;;;;;;;187.52;120.70;;;;;;;24.94;44.31;93764.09;4985469;28;20093;-93
2022/07/21 06:18:53;;;;;;;;;;;;;;;;;;;;;
2022/07/21 06:21:23;;;;;;;219.45;142.27;;;;;;;25.05;43.71;93779.66;4963565;28;20099;-93
2022/07/21 06:23:50;;;;;;;176.27;110.43;;;;;;;24.98;44.12;93777.56;4979832;28;20049;-93
2022/07/21 06:26:16;;;;;;;168.15;105.20;;;;;;;25.03;44.17;93773.16;4983222;28;20492;-90
2022/07/21 06:28:43;;;;;;;162.57;104.57;;;;;;;24.96;44.35;93784.94;4975138;28;20566;-91
2022/07/21 06:31:08;;;;;;;138.50;94.85;;;;;;;24.94;44.59;93783.44;4999876;28;20046;-88
2022/07/21 06:33:34;;;;;;;169.55;100.47;;;;;;;24.89;44.53;93789.13;4954145;28;20105;-88
2022/07/21 06:35:59;;;;;;;197.80;100.90;;;;;;;24.94;44.59;93788.22;4977238;28;20054;-90
2022/07/21 06:38:26;;;;;;;193.45;100.03;;;;;;;24.89;44.81;93778.81;4975851;28;20046;-88
2022/07/21 06:40:51;;;;;;;154.82;94.05;;;;;;;24.93;44.82;93786.72;5018369;28;20052;-91
2022/07/21 06:43:17;;;;;;;149.40;89.95;;;;;;;24.92;44.84;93794.28;4994837;28;20045;-93
2022/07/21 06:45:42;;;;;;;142.05;87.40;;;;;;;24.96;44.56;93787.69;4994031;28;20044;-92
2022/07/21 06:48:08;;;;;;;152.43;89.03;;;;;;;24.94;44.86;93790.97;4991791;28;20021;-91
2022/07/21 06:50:35;;;;;;;141.88;87.57;;;;;;;24.91;44.76;93794.81;4970210;28;20038;-93
2022/07/21 06:53:01;;;;;;;145.15;90.47;;;;;;;24.97;44.53;93800.97;4969694;28;20042;-93
2022/07/21 06:55:28;;;;;;;159.75;90.93;;;;;;;24.93;44.85;93795.75;4954810;28;20047;-91
2022/07/21 06:57:57;;;;;;;136.07;85.90;;;;;;;24.98;44.65;93808.00;5012619;28;20145;-95
2022/07/21 07:00:24;;;;;;;134.88;82.28;;;;;;;25.00;44.59;93807.44;4998050;28;20033;-91
2022/07/21 07:02:51;;;;;;;149.90;86.85;;;;;;;25.01;44.69;93803.41;4981643;28;20037;-90
2022/07/21 07:05:16;;;;;;;182.38;86.85;;;;;;;25.01;44.78;93795.84;4994677;28;20048;-94
2022/07/21 07:07:43;;;;;;;140.93;80.18;;;;;;;25.05;44.52;93807.31;4993388;28;20049;-94
2022/07/21 07:10:09;;;;;;;159.82;89.53;;;;;;;25.05;44.63;93806.56;4995385;28;20050;-92
2022/07/21 07:12:36;;;;;;;194.32;120.13;;;;;;;25.04;44.56;93810.63;5002750;28;20388;-93
2022/07/21 07:15:12;;;;;;;181.32;114.40;;;;;;;25.06;44.61;93805.28;5012916;28;20045;-93
2022/07/21 07:17:38;;;;;;;172.27;109.90;;;;;;;25.07;44.53;93798.47;4998801;28;20053;-93
2022/07/21 07:20:07;;;;;;;221.25;141.63;;;;;;;25.09;44.34;93798.66;4984506;28;20054;-95
2022/07/21 07:22:33;;;;;;;237.07;152.90;;;;;;;25.10;44.46;93798.13;5026177;28;20036;-92
2022/07/21 07:27:23;;;;;;;269.20;185.73;;;;;;;25.13;44.63;93799.03;5189221;22;20048;-92
2022/07/21 07:29:49;;;;;;;288.27;193.30;;;;;;;25.13;44.47;93802.53;5037874;28;20406;-90
2022/07/21 07:32:14;;;;;;;294.00;199.35;;;;;;;25.18;44.86;93809.19;5033940;28;20025;-93
2022/07/21 07:34:39;;;;;;;322.20;226.32;;;;;;;25.16;44.70;93806.97;5043055;28;20052;-94
2022/07/21 07:37:06;;;;;;;330.70;227.43;;;;;;;25.18;44.31;93803.66;5044116;28;20035;-95
2022/07/21 07:39:31;;;;;;;305.05;213.38;;;;;;;25.16;44.28;93798.69;5058681;28;20113;-91
2022/07/21 07:41:57;;;;;;;308.33;217.65;;;;;;;25.17;44.58;93794.63;5040681;28;20576;-92
2022/07/21 07:44:22;;;;;;;295.15;204.95;;;;;;;25.20;44.37;93804.59;5038442;28;20375;-92
2022/07/21 07:46:48;;;;;;;407.65;232.18;;;;;;;25.23;44.52;93808.31;5039272;28;20049;-93
2022/07/21 07:49:14;;;;;;;346.50;218.82;;;;;;;25.21;44.46;93797.03;5035329;28;20044;-92
2022/07/21 07:51:39;;;;;;;314.67;210.77;;;;;;;25.22;44.58;93806.81;5062073;28;20045;-90
2022/07/21 07:54:05;;;;;;;304.85;200.35;;;;;;;25.21;44.33;93811.63;5039313;28;20037;-92
2022/07/21 07:56:30;;;;;;;304.00;209.43;;;;;;;25.20;44.68;93807.38;5040266;28;20486;-91
2022/07/21 07:58:56;;;;;;;300.50;200.88;;;;;;;25.27;44.92;93806.69;5037479;28;20108;-92
2022/07/21 08:01:26;;;;;;;286.20;188.90;;;;;;;25.27;44.67;93803.91;5034159;28;20049;-93
2022/07/21 08:03:52;;;;;;;265.77;172.95;;;;;;;25.31;44.53;93809.09;5056634;28;20068;-91
2022/07/21 08:06:17;;;;;;;263.50;174.43;;;;;;;25.33;44.64;93809.28;5043532;28;20645;-93
2022/07/21 08:08:43;;;;;;;270.38;175.25;;;;;;;25.27;44.50;93808.69;5042617;28;20036;-95
2022/07/21 08:11:10;;;;;;;262.27;169.82;;;;;;;25.27;44.55;93806.69;5041381;28;20056;-91
2022/07/21 08:13:35;;;;;;;263.70;175.25;;;;;;;25.28;44.56;93812.94;5042523;28;20044;-92
2022/07/21 08:16:01;;;;;;;273.80;174.63;;;;;;;25.28;44.55;93808.16;5055432;28;20089;-89
2022/07/21 08:18:27;;;;;;;268.95;174.88;;;;;;;25.27;44.61;93805.94;5051310;28;20036;-93
2022/07/21 08:20:52;;;;;;;271.13;177.10;;;;;;;25.26;44.58;93810.00;5067244;28;20044;-91
2022/07/21 08:23:18;;;;;;;268.52;171.07;;;;;;;25.27;44.62;93812.22;5067089;28;20491;-89
2022/07/21 08:25:43;;;;;;;255.90;158.73;;;;;;;25.27;44.83;93809.44;5054176;28;20036;-93
2022/07/21 08:28:09;;;;;;;240.25;154.65;;;;;;;25.30;44.67;93812.41;5050431;28;20455;-92
2022/07/21 08:30:36;;;;;;;310.60;216.18;;;;;;;25.30;44.72;93809.63;5034804;28;20434;-94
2022/07/21 08:33:01;;;;;;;334.23;233.23;;;;;;;25.31;44.84;93811.88;5028714;28;20342;-94
2022/07/21 08:35:27;;;;;;;332.20;226.77;;;;;;;25.30;44.62;93813.16;5051851;28;20036;-92
2022/07/21 08:37:58;;;;;;;337.40;220.70;;;;;;;25.29;44.85;93811.66;5040744;28;20044;-94
2022/07/21 08:40:29;;;;;;;340.80;221.63;;;;;;;25.28;44.90;93810.94;5047142;28;20095;-93
2022/07/21 08:42:55;;;;;;;348.05;242.10;;;;;;;25.32;44.88;93807.81;5013429;28;20049;-92
2022/07/21 08:45:22;;;;;;;336.13;238.65;;;;;;;25.32;45.04;93807.06;5038230;28;20103;-92
2022/07/21 08:47:51;;;;;;;350.35;248.98;;;;;;;25.33;44.90;93814.81;5029094;28;20049;-91
2022/07/21 08:50:16;;;;;;;370.63;261.67;;;;;;;25.34;44.89;93802.44;4989062;28;20068;-92
2022/07/21 08:52:41;;;;;;;376.58;265.27;;;;;;;25.38;44.76;93804.84;5016076;28;20052;-91
2022/07/21 08:55:07;;;;;;;349.25;249.45;;;;;;;25.37;44.84;93814.44;5002362;28;20044;-92
2022/07/21 08:57:32;;;;;;;368.90;258.17;;;;;;;25.33;44.95;93805.78;4985773;28;20049;-94
2022/07/21 08:59:58;;;;;;;353.35;256.85;;;;;;;25.36;44.98;93804.66;5015938;28;20489;-91
2022/07/21 09:02:29;;;;;;;362.92;266.58;;;;;;;25.38;44.83;93807.63;5038546;28;20149;-92
2022/07/21 09:04:54;;;;;;;354.20;255.93;;;;;;;25.38;44.77;93802.84;5022394;28;20051;-93
2022/07/21 09:07:22;;;;;;;347.63;248.02;;;;;;;25.35;45.02;93801.16;4977390;28;20392;-93
2022/07/21 09:09:58;;;;;;;336.13;242.88;;;;;;;25.35;44.89;93806.69;5015375;28;20045;-93
2022/07/21 09:12:24;;;;;;;342.13;237.85;;;;;;;25.36;44.78;93797.09;5015695;28;20041;-95
2022/07/21 09:14:50;;;;;;;333.40;233.13;;;;;;;25.37;44.76;93797.84;5008643;28;20084;-93
2022/07/21 09:17:20;;;;;;;396.70;290.85;;;;;;;25.39;44.97;93792.50;4976029;28;20066;-94
2022/07/21 09:19:47;;;;;;;404.80;285.33;;;;;;;25.38;45.00;93788.25;4959167;28;20068;-92
2022/07/21 09:22:18;;;;;;;323.92;234.88;;;;;;;25.37;44.95;93795.81;4956807;28;20030;-93
2022/07/21 09:24:47;;;;;;;;;;;;;;;25.35;45.07;93797.66;4955321;28;20050;-92
2022/07/21 09:27:24;;;;;;;353.08;256.05;;;;;;;25.37;45.10;93792.31;4986688;28;19921;-92
2022/07/21 09:29:51;;;;;;;391.95;276.60;;;;;;;25.36;45.18;93797.09;4970366;28;20048;-92
2022/07/21 09:32:24;;;;;;;395.67;287.52;;;;;;;25.39;45.30;93796.00;4981218;28;20041;-94
2022/07/21 09:34:54;;;;;;;374.25;268.58;;;;;;;25.40;45.06;93797.50;4970093;28;20046;-95
2022/07/21 09:37:20;;;;;;;443.98;314.65;;;;;;;25.41;45.06;93796.22;4972281;28;20042;-95
2022/07/21 09:40:07;;;;;;;385.70;277.27;;;;;;;25.41;45.18;93806.53;4986815;28;20034;-95
2022/07/21 09:42:40;;;;;;;493.02;352.77;;;;;;;25.44;45.16;93805.44;4997635;28;20125;-93
2022/07/21 09:45:08;;;;;;;482.27;340.02;;;;;;;25.45;45.04;93810.44;4978809;28;20033;-95
2022/07/21 09:47:33;;;;;;;497.90;360.77;;;;;;;25.44;45.07;93813.75;5021728;28;20047;-95
2022/07/21 09:50:00;;;;;;;484.92;344.85;;;;;;;25.45;45.02;93795.84;5049315;28;20044;-92
2022/07/21 09:52:35;;;;;;;447.35;326.40;;;;;;;25.47;44.99;93801.59;5118347;22;20077;-93
2022/07/21 09:55:12;;;;;;;474.15;330.05;;;;;;;25.44;45.06;93797.88;5117517;28;20039;-93
2022/07/21 09:57:38;;;;;;;494.30;359.67;;;;;;;25.48;45.24;93808.59;5039775;28;20057;-91
2022/07/21 10:00:08;;;;;;;426.60;308.15;;;;;;;25.47;45.53;93805.09;5018404;28;20059;-91
2022/07/21 10:02:34;;;;;;;401.77;297.02;;;;;;;25.50;45.53;93806.78;5020827;28;20041;-94
2022/07/21 10:05:03;;;;;;;368.10;262.52;;;;;;;25.48;45.79;93803.06;5020700;28;20091;-95
2022/07/21 10:07:36;;;;;;;342.58;254.68;;;;;;;25.48;45.52;93797.53;5078038;22;20044;-94
2022/07/21 10:10:08;;;;;;;349.17;247.85;;;;;;;25.45;45.98;93804.91;5091771;28;20052;-94
2022/07/21 10:12:34;;;;;;;336.95;241.98;;;;;;;25.46;45.59;93803.63;5036744;23;20048;-91
2022/07/21 10:14:59;;;;;;;309.63;226.55;;;;;;;25.45;46.03;93804.16;4988108;28;20046;-93
2022/07/21 10:17:51;;;;;;;342.25;228.43;;;;;;;25.44;46.16;93808.94;5024596;28;20100;-94
2022/07/21 10:20:29;;;;;;;332.13;228.50;;;;;;;25.43;46.35;93801.94;5034872;28;20033;-93
2022/07/21 10:23:14;;;;;;;315.15;231.07;;;;;;;25.48;45.95;93805.84;5045549;28;20042;-93
2022/07/21 10:25:42;;;;;;;284.75;207.57;;;;;;;25.45;46.62;93793.81;5029670;28;20034;-93
2022/07/21 10:28:11;;;;;;;268.98;194.75;;;;;;;25.46;46.69;93808.41;5012599;28;20038;-92
2022/07/21 10:30:50;;;;;;;237.57;158.70;;;;;;;25.44;46.72;93799.91;5032722;28;20049;-96
2022/07/21 10:33:19;;;;;;;226.38;161.40;;;;;;;25.45;46.76;93801.38;4988603;28;20040;-96
2022/07/21 10:35:49;;;;;;;209.70;149.00;;;;;;;25.46;46.92;93800.84;5057586;23;20075;-93
2022/07/21 10:38:27;;;;;;;201.48;140.32;;;;;;;25.46;47.00;93803.63;5053814;28;20045;-92
2022/07/21 10:40:53;;;;;;;181.90;130.23;;;;;;;25.51;47.44;93802.72;5047259;28;20041;-93
2022/07/21 10:43:27;;;;;;;154.93;107.40;;;;;;;25.51;47.40;93807.50;5014534;28;20131;-92
2022/07/21 10:45:54;;;;;;;120.70;84.03;;;;;;;25.52;47.87;93809.00;5031761;28;20041;-93
2022/07/21 10:48:39;;;;;;;112.53;82.13;;;;;;;25.53;47.86;93818.78;5035489;28;20040;-94
2022/07/21 10:51:13;;;;;;;130.52;89.95;;;;;;;25.53;47.83;93807.69;5038142;28;20135;-95
2022/07/21 10:53:39;;;;;;;135.43;93.80;;;;;;;25.62;47.59;93809.94;5033280;28;20034;-90
2022/07/21 10:56:06;;;;;;;138.55;101.20;;;;;;;25.60;47.85;93806.97;5034737;28;20055;-91
2022/07/21 10:58:40;;;;;;;147.43;99.18;;;;;;;25.61;47.72;93814.72;5016229;28;20044;-92
2022/07/21 11:01:15;;;;;;;164.82;115.65;;;;;;;25.64;47.79;93806.66;5067741;28;20029;-93
2022/07/21 11:03:41;;;;;;;151.27;106.95;;;;;;;25.68;47.75;93807.78;5082798;28;20048;-91
2022/07/21 11:06:15;;;;;;;139.13;95.68;;;;;;;25.69;47.80;93812.03;5020066;28;20132;-92
2022/07/21 11:08:42;;;;;;;127.57;87.10;;;;;;;25.72;47.96;93810.94;5052673;28;20078;-92
2022/07/21 11:11:13;;;;;;;139.98;82.13;;;;;;;25.73;47.66;93800.59;5063014;28;20045;-92
2022/07/21 11:13:57;;;;;;;;;;;;;;;25.67;48.10;93800.75;5039179;28;20579;-93
2022/07/21 11:16:23;;;;;;;149.38;78.45;;;;;;;25.75;48.63;93812.59;5053485;28;19920;-92
2022/07/21 11:18:48;;;;;;;128.93;74.60;;;;;;;25.79;48.47;93812.97;5040375;28;20044;-92
2022/07/21 11:21:15;;;;;;;102.68;60.72;;;;;;;25.75;48.59;93801.53;5041620;28;20029;-92
2022/07/21 11:23:48;;;;;;;117.38;68.20;;;;;;;25.73;48.94;93811.66;5056570;28;20038;-93